createdAt,value
2022-12-27T00:00:58.776Z,8.95
2022-12-27T00:03:25.431Z,9.00
2022-12-27T00:05:54.410Z,9.03
2022-12-27T00:08:20.984Z,9.06
2022-12-27T00:10:47.597Z,9.03
2022-12-27T00:13:16.605Z,9.04
2022-12-27T00:15:43.328Z,9.04
2022-12-27T00:18:09.931Z,9.04
2022-12-27T00:20:38.688Z,9.02
2022-12-27T00:23:07.401Z,9.00
2022-12-27T00:25:36.248Z,9.03
2022-12-27T00:28:02.879Z,9.05
2022-12-27T00:30:34.359Z,9.06
2022-12-27T00:33:03.497Z,9.09
2022-12-27T00:35:32.606Z,9.15
2022-12-27T00:37:59.479Z,9.22
2022-12-27T00:40:26.024Z,9.21
2022-12-27T00:42:55.967Z,9.19
2022-12-27T00:45:25.658Z,9.24
2022-12-27T00:47:52.299Z,9.24
2022-12-27T00:50:23.666Z,9.24
2022-12-27T00:52:50.459Z,9.24
2022-12-27T00:55:17.288Z,9.23
2022-12-27T00:57:46.290Z,9.23
2022-12-27T01:00:15.699Z,9.24
2022-12-27T01:02:44.732Z,9.29
2022-12-27T01:05:16.680Z,9.35
2022-12-27T01:07:44.423Z,9.33
2022-12-27T01:10:13.413Z,9.39
2022-12-27T01:12:40.073Z,9.34
2022-12-27T01:15:07.293Z,9.22
2022-12-27T01:17:33.994Z,9.21
2022-12-27T01:20:03.189Z,9.33
2022-12-27T01:22:34.798Z,9.32
2022-12-27T01:25:01.406Z,9.34
2022-12-27T01:27:28.354Z,9.42
2022-12-27T01:29:55.078Z,9.51
2022-12-27T01:32:21.735Z,9.53
2022-12-27T01:34:48.488Z,9.52
2022-12-27T01:37:15.047Z,9.51
2022-12-27T01:39:41.693Z,9.56
2022-12-27T01:42:36.087Z,9.59
2022-12-27T01:45:04.135Z,9.64
2022-12-27T01:47:39.998Z,9.76
2022-12-27T01:50:06.833Z,9.93
2022-12-27T01:52:36.516Z,10.06
2022-12-27T01:55:26.435Z,10.19
2022-12-27T01:57:53.883Z,10.28
2022-12-27T02:00:21.134Z,10.40
2022-12-27T02:02:48.089Z,10.44
2022-12-27T02:05:15.282Z,10.55
2022-12-27T02:07:56.469Z,10.65
2022-12-27T02:10:25.539Z,10.72
2022-12-27T02:12:54.460Z,10.74
2022-12-27T02:15:21.033Z,10.77
2022-12-27T02:17:47.696Z,10.85
2022-12-27T02:20:14.598Z,10.92
2022-12-27T02:23:03.056Z,10.99
2022-12-27T02:25:41.669Z,11.08
2022-12-27T02:28:14.843Z,11.14
2022-12-27T02:30:42.117Z,11.21
2022-12-27T02:33:15.346Z,11.20
2022-12-27T02:35:43.392Z,11.26
2022-12-27T02:38:17.810Z,10.93
2022-12-27T02:41:05.353Z,11.34
2022-12-27T02:43:53.169Z,11.35
2022-12-27T02:46:45.006Z,11.40
2022-12-27T02:49:49.171Z,11.42
2022-12-27T02:52:53.518Z,11.46
2022-12-27T02:55:20.135Z,11.43
2022-12-27T02:57:52.699Z,11.46
2022-12-27T03:00:38.594Z,11.43
2022-12-27T03:03:21.129Z,11.46
2022-12-27T03:06:14.735Z,11.47
2022-12-27T03:08:51.751Z,11.35
2022-12-27T03:11:37.076Z,11.33
2022-12-27T03:14:22.364Z,11.28
2022-12-27T03:16:56.193Z,11.20
2022-12-27T03:19:56.654Z,11.21
2022-12-27T03:22:41.990Z,11.32
2022-12-27T03:25:27.135Z,11.38
2022-12-27T03:28:17.170Z,11.37
2022-12-27T03:31:02.529Z,11.40
2022-12-27T03:33:29.164Z,11.51
2022-12-27T03:36:34.306Z,11.57
2022-12-27T03:39:07.152Z,11.62
2022-12-27T03:42:23.718Z,11.61
2022-12-27T03:44:50.412Z,11.60
2022-12-27T03:47:31.255Z,11.63
2022-12-27T03:50:17.120Z,11.59
2022-12-27T03:52:50.055Z,11.68
2022-12-27T03:55:17.297Z,11.69
2022-12-27T03:57:44.045Z,11.64
2022-12-27T04:00:11.293Z,11.67
2022-12-27T04:02:40.927Z,11.66
2022-12-27T04:05:07.823Z,11.66
2022-12-27T04:07:34.425Z,11.66
2022-12-27T04:10:22.152Z,11.66
2022-12-27T04:13:07.945Z,11.67
2022-12-27T04:15:55.840Z,11.67
2022-12-27T04:18:43.218Z,11.64
2022-12-27T04:21:28.926Z,11.55
2022-12-27T04:24:14.093Z,11.51
2022-12-27T04:26:59.774Z,11.43
2022-12-27T04:29:44.998Z,11.40
2022-12-27T04:32:30.269Z,11.34
2022-12-27T04:34:59.093Z,11.29
2022-12-27T04:37:25.743Z,11.26
2022-12-27T04:40:10.994Z,11.23
2022-12-27T04:42:58.418Z,11.19
2022-12-27T04:45:43.742Z,11.25
2022-12-27T04:48:32.015Z,11.27
2022-12-27T04:51:17.255Z,11.21
2022-12-27T04:54:02.628Z,11.21
2022-12-27T04:56:33.858Z,11.24
2022-12-27T04:59:19.079Z,11.19
2022-12-27T05:02:04.100Z,11.12
2022-12-27T05:04:37.098Z,11.02
2022-12-27T05:07:24.275Z,11.01
2022-12-27T05:10:09.515Z,10.97
2022-12-27T05:12:55.145Z,10.94
2022-12-27T05:15:22.010Z,10.90
2022-12-27T05:17:48.619Z,10.91
2022-12-27T05:20:17.637Z,10.95
2022-12-27T05:23:02.984Z,10.94
2022-12-27T05:25:37.106Z,10.87
2022-12-27T05:28:07.985Z,10.80
2022-12-27T05:30:35.866Z,10.83
2022-12-27T05:33:02.776Z,10.83
2022-12-27T05:35:29.725Z,10.79
2022-12-27T05:37:56.404Z,10.78
2022-12-27T05:40:23.549Z,10.76
2022-12-27T05:42:52.734Z,10.79
2022-12-27T05:45:21.717Z,10.79
2022-12-27T05:47:48.361Z,10.81
2022-12-27T05:50:19.739Z,10.76
2022-12-27T05:52:49.573Z,10.79
2022-12-27T05:55:18.515Z,10.73
2022-12-27T05:57:48.029Z,10.71
2022-12-27T06:00:14.786Z,10.65
2022-12-27T06:02:44.111Z,10.57
2022-12-27T06:05:10.975Z,10.57
2022-12-27T06:07:40.423Z,10.53
2022-12-27T06:10:07.544Z,10.49
2022-12-27T06:12:34.165Z,10.49
2022-12-27T06:15:00.821Z,10.46
2022-12-27T06:17:27.507Z,10.47
2022-12-27T06:19:57.256Z,10.45
2022-12-27T06:22:29.357Z,10.47
2022-12-27T06:24:56.081Z,10.51
2022-12-27T06:27:22.757Z,10.47
2022-12-27T06:29:49.294Z,10.50
2022-12-27T06:32:17.773Z,10.51
2022-12-27T06:34:45.214Z,10.54
2022-12-27T06:37:12.371Z,10.53
2022-12-27T06:39:39.105Z,10.51
2022-12-27T06:42:08.094Z,10.53
2022-12-27T06:44:37.031Z,10.46
2022-12-27T06:47:19.640Z,10.45
2022-12-27T06:49:49.132Z,10.44
2022-12-27T06:52:21.572Z,10.45
2022-12-27T06:54:51.057Z,10.36
2022-12-27T06:57:17.832Z,10.36
2022-12-27T06:59:48.090Z,10.35
2022-12-27T07:02:17.796Z,10.38
2022-12-27T07:04:46.917Z,10.42
2022-12-27T07:07:17.103Z,10.44
2022-12-27T07:09:46.065Z,10.39
2022-12-27T07:12:12.786Z,10.40
2022-12-27T07:14:39.399Z,10.41
2022-12-27T07:17:07.739Z,10.41
2022-12-27T07:19:37.503Z,10.39
2022-12-27T07:22:04.154Z,10.40
2022-12-27T07:24:33.573Z,10.41
2022-12-27T07:27:02.844Z,10.42
2022-12-27T07:29:29.454Z,10.39
2022-12-27T07:31:57.720Z,10.39
2022-12-27T07:34:28.931Z,10.42
2022-12-27T07:37:00.207Z,10.39
2022-12-27T07:39:26.939Z,10.34
2022-12-27T07:41:55.988Z,10.35
2022-12-27T07:44:27.118Z,10.34
2022-12-27T07:46:53.760Z,10.43
2022-12-27T07:49:20.474Z,10.44
2022-12-27T07:51:49.471Z,10.41
2022-12-27T07:54:18.529Z,10.39
2022-12-27T07:56:45.225Z,10.32
2022-12-27T07:59:12.849Z,10.29
2022-12-27T08:02:01.528Z,10.19
2022-12-27T08:04:28.726Z,10.21
2022-12-27T08:06:56.971Z,10.29
2022-12-27T08:09:28.206Z,10.30
2022-12-27T08:11:54.916Z,10.33
2022-12-27T08:14:26.570Z,10.29
2022-12-27T08:16:54.158Z,10.28
2022-12-27T08:19:20.879Z,10.18
2022-12-27T08:21:47.500Z,10.08
2022-12-27T08:24:14.429Z,10.05
2022-12-27T08:26:43.428Z,9.99
2022-12-27T08:29:10.289Z,9.94
2022-12-27T08:31:37.057Z,9.89
2022-12-27T08:34:06.485Z,9.84
2022-12-27T08:39:20.270Z,10.01
2022-12-27T08:41:49.340Z,10.14
2022-12-27T08:44:16.135Z,10.08
2022-12-27T08:46:42.887Z,10.10
2022-12-27T08:49:09.556Z,10.27
2022-12-27T08:51:41.094Z,10.34
2022-12-27T08:54:11.574Z,10.45
2022-12-27T08:56:41.042Z,10.59
2022-12-27T08:59:07.977Z,10.72
2022-12-27T09:01:34.839Z,10.55
2022-12-27T09:04:01.484Z,10.52
2022-12-27T09:06:28.346Z,10.59
2022-12-27T09:08:59.770Z,10.36
2022-12-27T09:11:30.272Z,10.11
2022-12-27T09:13:58.055Z,10.19
2022-12-27T09:16:27.625Z,10.36
2022-12-27T09:18:55.181Z,10.41
2022-12-27T09:21:22.699Z,9.39
2022-12-27T09:23:49.779Z,10.43
2022-12-27T09:26:17.550Z,10.59
2022-12-27T09:28:49.201Z,10.44
2022-12-27T09:31:18.999Z,10.42
2022-12-27T09:33:45.818Z,10.42
2022-12-27T09:36:13.511Z,10.38
2022-12-27T09:38:40.220Z,10.35
2022-12-27T09:41:19.425Z,10.28
2022-12-27T09:43:58.857Z,10.38
2022-12-27T09:46:29.956Z,10.64
2022-12-27T09:48:59.120Z,10.77
2022-12-27T09:51:36.767Z,10.61
2022-12-27T09:54:19.651Z,10.38
2022-12-27T09:57:18.332Z,10.37
2022-12-27T09:59:37.482Z,10.10
2022-12-27T10:02:04.561Z,10.04
2022-12-27T10:05:10.033Z,10.14
2022-12-27T10:07:42.623Z,10.26
2022-12-27T10:10:15.917Z,10.24
2022-12-27T10:13:00.054Z,10.37
2022-12-27T10:15:48.432Z,10.49
2022-12-27T10:18:34.080Z,10.40
2022-12-27T10:21:10.321Z,10.45
2022-12-27T10:23:37.371Z,10.75
2022-12-27T10:26:12.990Z,10.96
2022-12-27T10:28:44.001Z,11.36
2022-12-27T10:31:17.596Z,11.10
2022-12-27T10:33:46.517Z,10.93
2022-12-27T10:36:14.313Z,11.10
2022-12-27T10:38:43.197Z,10.79
2022-12-27T10:41:41.263Z,10.86
2022-12-27T10:44:11.598Z,10.66
2022-12-27T10:46:38.408Z,10.39
2022-12-27T10:49:24.571Z,10.57
2022-12-27T10:51:54.089Z,10.79
2022-12-27T10:54:27.841Z,10.70
2022-12-27T10:56:55.022Z,10.41
2022-12-27T10:59:28.634Z,10.33
2022-12-27T11:02:03.328Z,10.45
2022-12-27T11:04:33.663Z,10.26
2022-12-27T11:07:03.097Z,10.39
2022-12-27T11:09:44.936Z,10.55
2022-12-27T11:12:19.459Z,10.57
2022-12-27T11:15:08.915Z,10.83
2022-12-27T11:17:41.377Z,11.29
2022-12-27T11:20:29.288Z,10.83
2022-12-27T11:22:58.706Z,11.13
2022-12-27T11:25:32.943Z,11.25
2022-12-27T11:28:19.952Z,11.29
2022-12-27T11:30:53.245Z,11.37
2022-12-27T11:33:25.970Z,11.47
2022-12-27T11:36:00.005Z,11.71
2022-12-27T11:38:28.072Z,11.42
2022-12-27T11:41:09.982Z,11.65
2022-12-27T11:43:47.994Z,11.68
2022-12-27T11:46:21.633Z,11.85
2022-12-27T11:48:49.590Z,12.31
2022-12-27T11:51:16.646Z,12.58
2022-12-27T11:53:48.710Z,12.67
2022-12-27T11:56:30.726Z,12.61
2022-12-27T11:58:59.539Z,12.45
2022-12-27T12:01:38.511Z,12.40
2022-12-27T12:04:08.375Z,12.24
2022-12-27T12:06:47.895Z,12.30
2022-12-27T12:09:20.612Z,11.99
2022-12-27T12:11:55.371Z,11.75
2022-12-27T12:14:42.359Z,11.66
2022-12-27T12:17:32.435Z,11.66
2022-12-27T12:20:22.946Z,11.76
2022-12-27T12:23:11.576Z,12.16
2022-12-27T12:25:46.640Z,12.68
2022-12-27T12:28:38.367Z,12.45
2022-12-27T12:31:06.553Z,12.61
2022-12-27T12:33:52.810Z,12.47
2022-12-27T12:36:34.945Z,12.35
2022-12-27T12:39:13.924Z,12.56
2022-12-27T12:41:50.315Z,12.51
2022-12-27T12:44:17.469Z,12.61
2022-12-27T12:46:57.770Z,12.85
2022-12-27T12:49:34.038Z,12.95
2022-12-27T12:52:03.716Z,12.74
2022-12-27T12:54:36.606Z,12.55
2022-12-27T12:57:13.345Z,12.46
2022-12-27T12:59:40.131Z,12.32
2022-12-27T13:02:09.464Z,12.37
2022-12-27T13:04:54.011Z,12.64
2022-12-27T13:07:30.363Z,13.01
2022-12-27T13:09:57.862Z,13.06
2022-12-27T13:12:54.220Z,12.81
2022-12-27T13:15:36.203Z,12.83
2022-12-27T13:18:26.606Z,12.92
2022-12-27T13:21:18.210Z,12.40
2022-12-27T13:23:44.960Z,12.57
2022-12-27T13:26:21.544Z,12.35
2022-12-27T13:28:48.195Z,12.08
2022-12-27T13:31:20.864Z,12.25
2022-12-27T13:34:05.819Z,12.06
2022-12-27T13:36:37.429Z,11.96
2022-12-27T13:39:26.157Z,12.35
2022-12-27T13:42:09.045Z,12.63
2022-12-27T13:44:44.882Z,12.67
2022-12-27T13:47:20.936Z,12.94
2022-12-27T13:50:10.809Z,13.13
2022-12-27T13:52:40.229Z,13.37
2022-12-27T13:55:22.218Z,13.29
2022-12-27T13:58:07.527Z,13.11
2022-12-27T14:00:52.517Z,13.40
2022-12-27T14:03:24.522Z,13.59
2022-12-27T14:05:51.323Z,13.08
2022-12-27T14:08:39.949Z,12.57
2022-12-27T14:11:14.765Z,12.02
2022-12-27T14:13:41.822Z,11.62
2022-12-27T14:16:16.040Z,11.54
2022-12-27T14:18:45.098Z,11.22
2022-12-27T14:21:15.561Z,10.84
2022-12-27T14:23:45.782Z,10.59
2022-12-27T14:26:21.574Z,10.28
2022-12-27T14:29:00.296Z,9.96
2022-12-27T14:31:37.843Z,9.86
2022-12-27T14:34:16.670Z,9.79
2022-12-27T14:37:03.864Z,9.81
2022-12-27T14:39:45.736Z,9.75
2022-12-27T14:42:23.872Z,9.76
2022-12-27T14:45:11.555Z,9.58
2022-12-27T14:47:47.476Z,9.21
2022-12-27T14:50:17.041Z,9.07
2022-12-27T14:52:52.535Z,9.02
2022-12-27T14:55:37.664Z,9.00
2022-12-27T14:58:23.020Z,8.92
2022-12-27T15:00:49.760Z,8.91
2022-12-27T15:03:38.041Z,8.71
2022-12-27T15:06:16.419Z,8.61
2022-12-27T15:08:53.345Z,8.57
2022-12-27T15:11:45.708Z,8.30
2022-12-27T15:14:24.795Z,8.02
2022-12-27T15:16:57.950Z,7.74
2022-12-27T15:19:46.259Z,7.66
2022-12-27T15:22:48.385Z,7.77
2022-12-27T15:25:19.891Z,7.76
2022-12-27T15:27:55.752Z,7.73
2022-12-27T15:30:41.309Z,7.69
2022-12-27T15:33:14.081Z,7.73
2022-12-27T15:35:44.636Z,7.74
2022-12-27T15:38:15.109Z,7.81
2022-12-27T15:41:10.366Z,7.87
2022-12-27T15:43:46.556Z,7.90
2022-12-27T15:46:26.297Z,7.85
2022-12-27T15:48:55.797Z,7.70
2022-12-27T15:51:48.739Z,7.54
2022-12-27T15:54:18.536Z,7.46
2022-12-27T15:56:45.096Z,7.45
2022-12-27T15:59:30.638Z,7.48
2022-12-27T16:02:32.428Z,7.45
2022-12-27T16:05:02.583Z,7.44
2022-12-27T16:07:37.940Z,7.38
2022-12-27T16:10:35.257Z,7.26
2022-12-27T16:13:07.708Z,7.18
2022-12-27T16:15:37.659Z,7.12
2022-12-27T16:18:13.727Z,7.10
2022-12-27T16:20:44.608Z,7.17
2022-12-27T16:23:11.451Z,7.11
2022-12-27T16:25:38.866Z,7.00
2022-12-27T16:28:09.245Z,6.85
2022-12-27T16:30:43.119Z,6.76
2022-12-27T16:33:33.610Z,6.78
2022-12-27T16:36:06.355Z,6.62
2022-12-27T16:38:33.823Z,6.55
2022-12-27T16:41:11.714Z,6.63
2022-12-27T16:44:04.773Z,6.71
2022-12-27T16:46:52.099Z,6.78
2022-12-27T16:49:46.090Z,6.87
2022-12-27T16:52:12.705Z,6.87
2022-12-27T16:54:42.346Z,6.78
2022-12-27T16:57:22.425Z,6.71
2022-12-27T16:59:56.515Z,6.73
2022-12-27T17:02:38.971Z,6.78
2022-12-27T17:05:17.283Z,6.83
2022-12-27T17:07:55.991Z,6.93
2022-12-27T17:10:25.667Z,6.96
2022-12-27T17:12:53.057Z,7.02
2022-12-27T17:15:19.990Z,7.03
2022-12-27T17:17:47.024Z,6.93
2022-12-27T17:20:15.029Z,6.83
2022-12-27T17:22:43.741Z,6.80
2022-12-27T17:25:16.772Z,6.85
2022-12-27T17:27:48.785Z,6.92
2022-12-27T17:30:41.849Z,6.96
2022-12-27T17:33:20.847Z,6.95
2022-12-27T17:35:52.890Z,6.93
2022-12-27T17:38:24.697Z,6.84
2022-12-27T17:40:59.640Z,6.79
2022-12-27T17:44:04.848Z,6.69
2022-12-27T17:46:46.804Z,6.69
2022-12-27T17:49:13.641Z,6.60
2022-12-27T17:51:45.032Z,6.54
2022-12-27T17:54:43.116Z,6.39
2022-12-27T17:57:30.051Z,6.34
2022-12-27T17:59:56.835Z,6.28
2022-12-27T18:02:37.811Z,6.19
2022-12-27T18:05:05.302Z,6.19
2022-12-27T18:07:32.798Z,6.16
2022-12-27T18:10:03.760Z,6.22
2022-12-27T18:12:30.721Z,6.21
2022-12-27T18:15:16.361Z,6.21
2022-12-27T18:17:43.584Z,6.18
2022-12-27T18:20:28.755Z,6.15
2022-12-27T18:23:01.684Z,6.15
2022-12-27T18:25:29.717Z,6.18
2022-12-27T18:28:00.427Z,6.20
2022-12-27T18:30:32.472Z,6.15
2022-12-27T18:33:08.925Z,6.05
2022-12-27T18:35:35.693Z,6.02
2022-12-27T18:38:04.720Z,6.01
2022-12-27T18:40:34.519Z,6.03
2022-12-27T18:43:01.301Z,6.04
2022-12-27T18:45:29.284Z,6.00
2022-12-27T18:47:56.775Z,6.03
2022-12-27T18:50:30.551Z,6.05
2022-12-27T18:53:06.773Z,6.06
2022-12-27T18:55:36.246Z,6.04
2022-12-27T18:58:06.022Z,6.05
2022-12-27T19:00:32.697Z,6.10
2022-12-27T19:03:15.394Z,6.13
2022-12-27T19:06:00.922Z,6.16
2022-12-27T19:08:44.427Z,6.17
2022-12-27T19:11:20.658Z,6.16
2022-12-27T19:13:52.512Z,6.13
2022-12-27T19:16:24.196Z,6.14
2022-12-27T19:18:59.144Z,6.17
2022-12-27T19:21:31.241Z,6.15
2022-12-27T19:23:57.789Z,6.12
2022-12-27T19:26:25.818Z,6.13
2022-12-27T19:29:00.844Z,6.19
2022-12-27T19:31:27.538Z,6.16
2022-12-27T19:34:09.773Z,6.12
2022-12-27T19:36:40.339Z,6.08
2022-12-27T19:39:10.451Z,6.02
2022-12-27T19:41:38.366Z,6.05
2022-12-27T19:44:09.017Z,6.07
2022-12-27T19:46:38.402Z,6.10
2022-12-27T19:49:40.414Z,6.12
2022-12-27T19:51:52.105Z,5.90
2022-12-27T19:54:19.616Z,5.60
2022-12-27T19:56:48.389Z,5.48
2022-12-27T19:59:16.090Z,5.49
2022-12-27T20:01:47.483Z,5.56
2022-12-27T20:04:14.630Z,5.64
2022-12-27T20:06:43.591Z,5.72
2022-12-27T20:09:11.097Z,5.66
2022-12-27T20:11:37.739Z,5.62
2022-12-27T20:14:04.444Z,5.69
2022-12-27T20:16:33.547Z,5.62
2022-12-27T20:19:03.278Z,5.61
2022-12-27T20:21:29.976Z,5.64
2022-12-27T20:23:58.844Z,5.71
2022-12-27T20:26:26.238Z,5.71
2022-12-27T20:28:55.314Z,5.80
2022-12-27T20:31:22.540Z,5.92
2022-12-27T20:33:55.295Z,5.96
2022-12-27T20:36:22.928Z,5.88
2022-12-27T20:38:54.180Z,5.92
2022-12-27T20:41:21.336Z,5.92
2022-12-27T20:43:54.866Z,5.95
2022-12-27T20:46:24.063Z,5.87
2022-12-27T20:48:56.752Z,5.85
2022-12-27T20:51:27.559Z,5.93
2022-12-27T20:53:55.251Z,5.91
2022-12-27T20:56:21.974Z,5.77
2022-12-27T20:58:48.588Z,5.78
2022-12-27T21:01:16.489Z,5.70
2022-12-27T21:03:43.877Z,5.65
2022-12-27T21:06:15.470Z,5.61
2022-12-27T21:08:47.978Z,5.71
2022-12-27T21:11:20.269Z,5.69
2022-12-27T21:13:47.808Z,5.71
2022-12-27T21:16:20.654Z,5.58
2022-12-27T21:18:47.674Z,5.51
2022-12-27T21:21:20.856Z,5.54
2022-12-27T21:23:51.106Z,5.62
2022-12-27T21:26:23.771Z,5.63
2022-12-27T21:28:50.822Z,5.69
2022-12-27T21:31:17.710Z,5.73
2022-12-27T21:33:44.739Z,5.77
2022-12-27T21:36:16.689Z,5.76
2022-12-27T21:38:43.545Z,5.71
2022-12-27T21:41:11.870Z,5.48
2022-12-27T21:43:38.519Z,5.43
2022-12-27T21:46:06.756Z,5.36
2022-12-27T21:48:33.712Z,5.32
2022-12-27T21:51:07.146Z,5.29
2022-12-27T21:53:36.089Z,5.35
2022-12-27T21:56:02.811Z,5.37
2022-12-27T21:58:34.717Z,5.37
2022-12-27T22:01:09.247Z,5.24
2022-12-27T22:03:37.116Z,5.19
2022-12-27T22:06:11.194Z,5.23
2022-12-27T22:08:40.533Z,5.24
2022-12-27T22:11:07.387Z,5.26
2022-12-27T22:13:34.153Z,5.32
2022-12-27T22:16:04.744Z,5.37
2022-12-27T22:18:35.312Z,5.46
2022-12-27T22:21:05.463Z,5.53
2022-12-27T22:23:36.405Z,5.50
2022-12-27T22:26:03.230Z,5.51
2022-12-27T22:28:29.858Z,5.47
2022-12-27T22:30:57.084Z,5.57
2022-12-27T22:33:26.762Z,5.63
2022-12-27T22:35:53.430Z,5.64
2022-12-27T22:38:20.033Z,5.65
2022-12-27T22:40:49.002Z,5.66
2022-12-27T22:43:15.678Z,5.57
2022-12-27T22:45:42.754Z,5.57
2022-12-27T22:48:14.264Z,5.55
2022-12-27T22:50:43.237Z,5.46
2022-12-27T22:53:09.929Z,5.43
2022-12-27T22:55:40.152Z,5.36
2022-12-27T22:58:07.235Z,5.40
2022-12-27T23:00:33.851Z,5.45
2022-12-27T23:03:00.716Z,5.50
2022-12-27T23:05:27.333Z,5.57
2022-12-27T23:08:05.937Z,5.65
2022-12-27T23:10:36.660Z,5.68
2022-12-27T23:13:03.785Z,5.67
2022-12-27T23:15:33.130Z,5.71
2022-12-27T23:17:59.907Z,5.71
2022-12-27T23:20:28.969Z,5.71
2022-12-27T23:22:55.550Z,5.72
2022-12-27T23:25:25.362Z,5.74
2022-12-27T23:27:52.067Z,5.77
2022-12-27T23:30:19.606Z,5.74
2022-12-27T23:32:46.163Z,5.76
2022-12-27T23:35:12.804Z,5.79
2022-12-27T23:37:39.450Z,5.83
2022-12-27T23:40:09.252Z,5.86
2022-12-27T23:42:38.638Z,5.89
2022-12-27T23:45:05.595Z,5.92
2022-12-27T23:47:32.213Z,5.94
2022-12-27T23:49:58.924Z,5.96
2022-12-27T23:52:27.906Z,5.97
2022-12-27T23:54:54.443Z,5.96
2022-12-27T23:57:23.637Z,5.97
2022-12-27T23:59:55.475Z,5.94
